Time;durP1;ratioP1;P1;durP2;ratioP2;P2;SDS_P1;SDS_P2;PMS_P1;PMS_P2;Temp;Humidity;BMP_temperature;BMP_pressure;BME280_temperature;BME280_humidity;BME280_pressure;Samples;Min_cycle;Max_cycle;Signal;HPM_P1;HPM_P2
2021/03/26 00:00:51;;;;;;;95.55;30.50;;;5.20;99.90;;;;;;4964595;27;20589;-84
2021/03/26 00:03:20;;;;;;;82.10;27.40;;;5.10;99.90;;;;;;4962768;27;20441;-85
2021/03/26 00:05:44;;;;;;;79.20;27.35;;;5.10;99.90;;;;;;4961151;27;20558;-85
2021/03/26 00:08:13;;;;;;;83.45;25.75;;;5.20;99.90;;;;;;4962678;27;20463;-83
2021/03/26 00:10:37;;;;;;;73.60;25.05;;;5.20;99.90;;;;;;4967964;27;20121;-85
2021/03/26 00:12:59;;;;;;;79.60;25.55;;;5.30;99.90;;;;;;4958138;27;20123;-83
2021/03/26 00:15:22;;;;;;;75.05;25.50;;;5.30;99.90;;;;;;4970484;27;20547;-83
2021/03/26 00:17:44;;;;;;;90.38;27.50;;;5.40;99.90;;;;;;4968980;27;20130;-83
2021/03/26 00:20:10;;;;;;;77.07;26.77;;;5.40;99.90;;;;;;4968221;27;20081;-84
2021/03/26 00:22:32;;;;;;;85.57;28.10;;;5.40;99.90;;;;;;4940266;27;20093;-84
2021/03/26 00:24:55;;;;;;;81.38;26.88;;;5.40;99.90;;;;;;4961488;27;20093;-85
2021/03/26 00:27:18;;;;;;;94.07;27.35;;;5.20;99.90;;;;;;4968272;27;20085;-81
2021/03/26 00:29:40;;;;;;;83.18;28.52;;;5.10;99.90;;;;;;4969976;27;22924;-85
2021/03/26 00:32:04;;;;;;;89.80;26.05;;;5.00;99.90;;;;;;4968732;27;20105;-84
2021/03/26 00:34:28;;;;;;;80.93;27.20;;;4.90;99.90;;;;;;4966885;27;20089;-84
2021/03/26 00:36:52;;;;;;;84.40;26.77;;;4.80;99.90;;;;;;4967515;27;20131;-85
2021/03/26 00:39:14;;;;;;;75.15;24.48;;;4.80;99.90;;;;;;4967197;27;20078;-85
2021/03/26 00:41:37;;;;;;;84.45;27.05;;;4.70;99.90;;;;;;4969049;27;20085;-83
2021/03/26 00:44:00;;;;;;;70.72;23.58;;;4.60;99.90;;;;;;4968285;27;20459;-85
2021/03/26 00:46:24;;;;;;;65.55;22.83;;;4.40;99.90;;;;;;4967881;27;20077;-85
2021/03/26 00:48:46;;;;;;;85.45;29.30;;;4.40;99.90;;;;;;4967594;27;20591;-83
2021/03/26 00:51:11;;;;;;;96.10;32.63;;;4.50;99.90;;;;;;4967345;27;20150;-82
2021/03/26 00:53:37;;;;;;;84.70;27.80;;;4.50;99.90;;;;;;4967828;27;20112;-83
2021/03/26 00:56:02;;;;;;;83.65;27.17;;;4.50;99.90;;;;;;4956136;27;20547;-80
2021/03/26 00:58:26;;;;;;;77.78;27.13;;;4.40;99.90;;;;;;4964932;27;20120;-84
2021/03/26 01:00:49;;;;;;;85.25;26.67;;;4.40;99.90;;;;;;4967483;27;20487;-83
2021/03/26 01:03:13;;;;;;;78.70;25.17;;;4.40;99.90;;;;;;4956086;27;20120;-84
2021/03/26 01:05:39;;;;;;;69.03;24.35;;;4.40;99.90;;;;;;4966101;27;20497;-84
2021/03/26 01:08:02;;;;;;;80.78;26.30;;;;;;;;;;4961320;27;20522;-82
2021/03/26 01:10:29;;;;;;;82.22;26.88;;;4.50;99.90;;;;;;4967911;27;20089;-83
2021/03/26 01:12:52;;;;;;;79.57;25.77;;;4.60;99.90;;;;;;4965062;27;20082;-84
2021/03/26 01:15:18;;;;;;;82.68;27.35;;;4.50;99.90;;;;;;4967002;27;20452;-83
2021/03/26 01:17:41;;;;;;;92.15;27.08;;;4.40;99.90;;;;;;4966180;27;20087;-83
2021/03/26 01:20:07;;;;;;;86.65;25.60;;;4.30;99.90;;;;;;4967696;27;20089;-81
2021/03/26 01:22:30;;;;;;;82.35;26.77;;;4.30;99.90;;;;;;4964897;27;20081;-84
2021/03/26 01:24:52;;;;;;;85.15;24.52;;;4.30;99.90;;;;;;4966842;27;20441;-85
2021/03/26 01:27:16;;;;;;;80.22;26.25;;;;;;;;;;4965739;27;20096;-83
2021/03/26 01:29:38;;;;;;;82.72;28.08;;;4.30;99.90;;;;;;4967199;27;20500;-84
2021/03/26 01:32:01;;;;;;;96.38;28.10;;;4.40;99.90;;;;;;4965146;27;20486;-83
2021/03/26 01:34:24;;;;;;;87.50;28.63;;;4.40;99.90;;;;;;4956204;27;20460;-84
2021/03/26 01:36:46;;;;;;;102.65;29.17;;;4.50;99.90;;;;;;4965957;27;20121;-84
2021/03/26 01:39:09;;;;;;;99.10;30.25;;;4.60;99.90;;;;;;4965362;27;20105;-83
2021/03/26 01:41:38;;;;;;;100.88;30.98;;;4.70;99.90;;;;;;4965667;27;20085;-80
2021/03/26 01:44:02;;;;;;;98.88;30.83;;;4.70;99.90;;;;;;4940712;27;20185;-83
2021/03/26 01:46:26;;;;;;;102.47;28.77;;;4.80;99.90;;;;;;4963066;27;20089;-84
2021/03/26 01:48:52;;;;;;;113.43;28.30;;;4.90;99.90;;;;;;4954340;27;20097;-83
2021/03/26 01:51:16;;;;;;;;;;;4.90;99.90;;;;;;4966507;27;20506;-83
2021/03/26 01:53:40;;;;;;;95.80;26.13;;;5.00;99.90;;;;;;4964836;27;19962;-85
2021/03/26 01:56:04;;;;;;;98.95;28.60;;;5.00;99.90;;;;;;4965878;27;20575;-81
2021/03/26 01:58:30;;;;;;;95.07;26.10;;;5.10;99.90;;;;;;4938616;27;20110;-84
2021/03/26 02:00:56;;;;;;;98.78;26.90;;;5.10;99.90;;;;;;4945461;27;20097;-83
2021/03/26 02:03:31;;;;;;;91.93;27.23;;;5.10;99.90;;;;;;4942778;27;20080;-83
2021/03/26 02:05:56;;;;;;;92.85;28.08;;;5.10;99.90;;;;;;4965859;27;20126;-83
2021/03/26 02:08:23;;;;;;;95.97;28.40;;;5.10;99.90;;;;;;4966443;27;20090;-85
2021/03/26 02:10:46;;;;;;;87.80;26.95;;;5.20;99.90;;;;;;4966523;27;20089;-84
2021/03/26 02:13:15;;;;;;;97.95;29.05;;;5.20;99.90;;;;;;4965119;27;20511;-81
2021/03/26 02:15:44;;;;;;;93.93;26.83;;;5.20;99.90;;;;;;4962957;27;20126;-83
2021/03/26 02:18:08;;;;;;;87.07;27.83;;;5.20;99.90;;;;;;4963400;27;20135;-84
2021/03/26 02:20:42;;;;;;;85.05;27.00;;;5.20;99.90;;;;;;4966045;27;20101;-84
2021/03/26 02:23:08;;;;;;;94.40;26.83;;;5.30;99.90;;;;;;4963295;27;20091;-85
2021/03/26 02:25:31;;;;;;;90.25;29.88;;;5.20;99.90;;;;;;4965226;27;20125;-82
2021/03/26 02:27:54;;;;;;;88.60;27.45;;;5.30;99.90;;;;;;4965430;27;20533;-84
2021/03/26 02:30:20;;;;;;;80.07;27.23;;;5.30;99.90;;;;;;4965767;27;20089;-83
2021/03/26 02:32:43;;;;;;;80.13;24.48;;;5.40;99.90;;;;;;4963750;27;20086;-84
2021/03/26 02:35:17;;;;;;;83.18;26.63;;;5.30;99.90;;;;;;4964830;27;20092;-83
2021/03/26 02:37:44;;;;;;;87.30;25.73;;;5.30;99.90;;;;;;4962014;27;20109;-85
2021/03/26 02:40:15;;;;;;;79.65;25.40;;;5.30;99.90;;;;;;4963897;27;20081;-83
2021/03/26 02:42:38;;;;;;;71.05;24.83;;;5.30;99.90;;;;;;4964121;27;20150;-83
2021/03/26 02:45:07;;;;;;;76.00;24.35;;;5.20;99.90;;;;;;4964411;27;20096;-83
2021/03/26 02:47:36;;;;;;;73.95;23.38;;;5.10;99.90;;;;;;4962571;27;20452;-83
2021/03/26 02:50:05;;;;;;;72.80;24.58;;;5.00;99.90;;;;;;4964205;27;22022;-84
2021/03/26 02:52:35;;;;;;;80.88;24.45;;;5.10;99.90;;;;;;4961996;27;20092;-84
2021/03/26 02:55:10;;;;;;;67.45;22.98;;;5.00;99.90;;;;;;4941308;27;20085;-83
2021/03/26 02:57:37;;;;;;;74.57;23.60;;;5.10;99.90;;;;;;4965141;27;20092;-85
2021/03/26 03:00:08;;;;;;;74.50;24.77;;;5.10;99.90;;;;;;4962790;27;20085;-85
2021/03/26 03:02:31;;;;;;;77.50;26.17;;;5.20;99.90;;;;;;4965356;27;20146;-85
2021/03/26 03:05:02;;;;;;;75.63;24.73;;;5.20;99.90;;;;;;4962868;27;20090;-82
2021/03/26 03:07:28;;;;;;;75.10;24.73;;;5.30;99.90;;;;;;4963283;27;20537;-84
2021/03/26 03:09:56;;;;;;;80.22;26.30;;;5.30;99.90;;;;;;4964436;27;20452;-84
2021/03/26 03:12:24;;;;;;;77.53;24.83;;;5.20;99.90;;;;;;4964216;27;20088;-83
2021/03/26 03:14:50;;;;;;;71.72;23.35;;;5.30;99.90;;;;;;4965277;27;20078;-82
2021/03/26 03:17:23;;;;;;;78.68;24.67;;;5.40;99.90;;;;;;4963490;27;20081;-81
2021/03/26 03:19:54;;;;;;;71.95;24.25;;;5.40;99.90;;;;;;4964906;27;20480;-84
2021/03/26 03:22:23;;;;;;;63.25;23.38;;;5.40;99.90;;;;;;4964482;27;20500;-85
2021/03/26 03:24:47;;;;;;;76.40;25.33;;;5.30;99.90;;;;;;4963945;27;20213;-84
2021/03/26 03:27:28;;;;;;;71.03;23.35;;;5.30;99.90;;;;;;4956788;27;20096;-85
2021/03/26 03:29:58;;;;;;;65.88;23.35;;;5.30;99.90;;;;;;4963444;27;20142;-84
2021/03/26 03:32:34;;;;;;;67.72;23.15;;;5.30;99.90;;;;;;4963323;27;20140;-82
2021/03/26 03:35:07;;;;;;;66.63;23.70;;;5.30;99.90;;;;;;4964572;27;20096;-81
2021/03/26 03:37:35;;;;;;;64.85;23.83;;;5.30;99.90;;;;;;4963871;27;20082;-82
2021/03/26 03:40:11;;;;;;;77.30;24.10;;;5.30;99.90;;;;;;4962097;27;20094;-84
2021/03/26 03:42:41;;;;;;;69.80;22.70;;;5.20;99.90;;;;;;4962537;27;20196;-84
2021/03/26 03:45:09;;;;;;;69.05;22.10;;;5.20;99.90;;;;;;4966682;27;20081;-84
2021/03/26 03:47:36;;;;;;;64.47;22.90;;;5.20;99.90;;;;;;4968579;27;20085;-85
2021/03/26 03:50:05;;;;;;;66.05;22.38;;;5.30;99.90;;;;;;4964904;27;20093;-84
2021/03/26 03:52:34;;;;;;;68.72;22.70;;;5.30;99.90;;;;;;4968282;27;20558;-84
2021/03/26 03:55:02;;;;;;;70.65;24.15;;;5.30;99.90;;;;;;4957306;27;20102;-85
2021/03/26 03:57:30;;;;;;;66.65;22.98;;;5.30;99.90;;;;;;4967854;27;20102;-82
2021/03/26 03:59:58;;;;;;;70.55;22.08;;;5.30;99.90;;;;;;4958556;27;20089;-81
2021/03/26 04:02:28;;;;;;;68.90;22.60;;;5.30;99.90;;;;;;4968500;27;20530;-81
2021/03/26 04:04:58;;;;;;;67.55;22.10;;;5.20;99.90;;;;;;4968859;27;20078;-81
2021/03/26 04:07:26;;;;;;;70.00;22.60;;;5.20;99.90;;;;;;4966855;27;20120;-82
2021/03/26 04:09:53;;;;;;;76.30;23.10;;;5.10;99.90;;;;;;4966971;27;20113;-82
2021/03/26 04:12:19;;;;;;;73.00;22.63;;;5.10;99.90;;;;;;4967591;27;20089;-83
2021/03/26 04:14:46;;;;;;;59.40;21.95;;;5.10;99.90;;;;;;4966490;27;20081;-83
2021/03/26 04:17:15;;;;;;;74.03;24.00;;;5.10;99.90;;;;;;4967163;27;20085;-81
2021/03/26 04:19:44;;;;;;;60.55;21.42;;;5.10;99.90;;;;;;4968267;27;20412;-82
2021/03/26 04:22:10;;;;;;;64.30;22.33;;;5.20;99.90;;;;;;4967866;27;20115;-82
2021/03/26 04:24:38;;;;;;;65.35;20.50;;;5.20;99.90;;;;;;4968056;27;20134;-84
2021/03/26 04:27:08;;;;;;;58.22;22.27;;;5.20;99.90;;;;;;4946682;27;20990;-82
2021/03/26 04:29:38;;;;;;;58.72;21.55;;;5.10;99.90;;;;;;4960449;27;20439;-87
2021/03/26 04:32:05;;;;;;;63.38;22.17;;;5.10;99.90;;;;;;4966187;27;20113;-84
2021/03/26 04:34:29;;;;;;;57.50;20.95;;;5.10;99.90;;;;;;4963846;27;20082;-83
2021/03/26 04:37:02;;;;;;;63.50;23.55;;;5.10;99.90;;;;;;4965098;27;20093;-83
2021/03/26 04:39:34;;;;;;;67.03;23.45;;;5.10;99.90;;;;;;4965371;27;20563;-83
2021/03/26 04:42:04;;;;;;;71.60;23.75;;;5.10;99.90;;;;;;4965545;27;20466;-79
2021/03/26 04:44:34;;;;;;;71.25;22.42;;;5.10;99.90;;;;;;4954685;27;20082;-81
2021/03/26 04:47:02;;;;;;;57.50;21.98;;;5.10;99.90;;;;;;4963631;27;20539;-82
2021/03/26 04:49:30;;;;;;;63.90;23.08;;;5.00;99.90;;;;;;4965540;27;20090;-82
2021/03/26 04:51:59;;;;;;;63.22;21.00;;;4.90;99.90;;;;;;4965193;27;20084;-84
2021/03/26 04:54:30;;;;;;;53.70;20.63;;;4.70;99.90;;;;;;4957123;27;20134;-84
2021/03/26 04:56:57;;;;;;;55.05;20.17;;;4.60;99.90;;;;;;4964750;27;20097;-83
2021/03/26 04:59:29;;;;;;;55.60;18.25;;;4.50;99.90;;;;;;4966203;27;20081;-82
2021/03/26 05:01:54;;;;;;;52.97;19.40;;;4.40;99.90;;;;;;4963540;27;20088;-84
2021/03/26 05:04:21;;;;;;;54.33;20.52;;;4.50;99.90;;;;;;4966360;27;20169;-84
2021/03/26 05:06:49;;;;;;;61.03;21.85;;;4.60;99.90;;;;;;4965269;27;20224;-84
2021/03/26 05:09:17;;;;;;;72.00;23.73;;;4.80;99.90;;;;;;4966532;27;20125;-83
2021/03/26 05:11:44;;;;;;;75.85;25.70;;;4.90;99.90;;;;;;4966496;27;20563;-83
2021/03/26 05:14:11;;;;;;;83.05;25.25;;;5.00;99.90;;;;;;4967021;27;20097;-85
2021/03/26 05:16:46;;;;;;;97.70;28.55;;;5.10;99.90;;;;;;4954885;27;20607;-83
2021/03/26 05:19:14;;;;;;;96.20;28.92;;;5.20;99.90;;;;;;4965107;27;20274;-85
2021/03/26 05:21:43;;;;;;;93.85;30.35;;;5.30;99.90;;;;;;4921899;27;20082;-80
2021/03/26 05:24:17;;;;;;;101.32;31.55;;;5.30;99.90;;;;;;4961179;27;20088;-84
2021/03/26 05:26:39;;;;;;;97.72;29.55;;;5.40;99.90;;;;;;4966238;27;20444;-85
2021/03/26 05:29:05;;;;;;;96.35;30.58;;;5.50;99.90;;;;;;4945845;27;20081;-82
2021/03/26 05:31:48;;;;;;;93.18;31.13;;;5.50;99.90;;;;;;4962308;27;20105;-84
2021/03/26 05:34:18;;;;;;;95.95;30.98;;;5.60;99.90;;;;;;4965219;27;20085;-82
2021/03/26 05:36:47;;;;;;;87.28;30.10;;;5.70;99.90;;;;;;4964330;27;20124;-84
2021/03/26 05:39:14;;;;;;;86.50;30.33;;;5.80;99.90;;;;;;4966384;27;20137;-85
2021/03/26 05:42:21;;;;;;;91.80;31.02;;;5.90;99.90;;;;;;4964880;27;20082;-83
2021/03/26 05:44:54;;;;;;;80.45;28.92;;;6.00;99.90;;;;;;4861382;28;20099;-83
2021/03/26 05:47:41;;;;;;;74.32;25.92;;;6.10;99.90;;;;;;4954008;27;20485;-84
2021/03/26 05:50:23;;;;;;;68.10;24.88;;;6.00;99.90;;;;;;4965351;27;20543;-84
2021/03/26 05:53:14;;;;;;;47.13;18.73;;;6.00;99.90;;;;;;4964010;27;20102;-83
2021/03/26 05:55:49;;;;;;;44.90;17.23;;;6.00;99.90;;;;;;4963414;27;20100;-83
2021/03/26 05:58:29;;;;;;;61.20;22.10;;;6.00;99.90;;;;;;4962627;27;20096;-83
2021/03/26 06:01:19;;;;;;;64.85;25.30;;;6.20;99.90;;;;;;4965844;27;20084;-81
2021/03/26 06:04:04;;;;;;;82.68;29.75;;;6.30;99.90;;;;;;4963177;27;20084;-83
2021/03/26 06:06:50;;;;;;;71.38;26.58;;;6.40;99.90;;;;;;4961277;27;20547;-85
2021/03/26 06:09:44;;;;;;;75.60;26.42;;;6.50;99.90;;;;;;4966260;27;20134;-82
2021/03/26 06:12:37;;;;;;;65.22;24.35;;;6.60;99.90;;;;;;4963522;27;20538;-82
2021/03/26 06:15:38;;;;;;;69.97;25.48;;;6.70;99.90;;;;;;4930305;27;20524;-78
2021/03/26 06:18:35;;;;;;;77.30;26.67;;;6.80;99.90;;;;;;4962437;27;20461;-81
2021/03/26 06:21:18;;;;;;;78.60;27.75;;;6.90;99.90;;;;;;4962236;27;20114;-78
2021/03/26 06:24:13;;;;;;;71.72;27.85;;;7.10;99.90;;;;;;4964399;27;20077;-82
2021/03/26 06:27:16;;;;;;;73.47;29.40;;;7.20;99.90;;;;;;4964505;27;20111;-86
2021/03/26 06:29:53;;;;;;;86.60;30.55;;;7.50;99.90;;;;;;4940371;27;20105;-85
2021/03/26 06:33:08;;;;;;;81.07;30.20;;;8.10;99.90;;;;;;4957729;27;20185;-84
2021/03/26 06:35:57;;;;;;;73.65;29.45;;;9.20;99.90;;;;;;4965996;27;20082;-84
2021/03/26 06:39:04;;;;;;;66.32;25.67;;;10.00;99.90;;;;;;4963435;27;20090;-83
2021/03/26 06:41:35;;;;;;;;;;;10.00;99.90;;;;;;4965019;27;20080;-83
2021/03/26 06:44:31;;;;;;;69.70;25.17;;;9.60;99.90;;;;;;4964208;27;19962;-84
2021/03/26 06:46:59;;;;;;;61.00;25.38;;;9.40;99.90;;;;;;4961385;27;20086;-84
2021/03/26 06:49:31;;;;;;;65.03;26.50;;;10.00;99.90;;;;;;4964652;27;20139;-85
2021/03/26 06:52:12;;;;;;;61.17;25.88;;;10.80;99.90;;;;;;4967040;27;20160;-84
2021/03/26 06:54:55;;;;;;;57.47;25.50;;;12.00;99.90;;;;;;4952995;27;20083;-84
2021/03/26 06:57:48;;;;;;;59.28;24.23;;;13.00;99.90;;;;;;4961538;27;20085;-84
2021/03/26 07:00:46;;;;;;;67.15;24.70;;;13.90;99.90;;;;;;4959468;27;20047;-84
2021/03/26 07:03:30;;;;;;;58.15;23.92;;;15.20;99.90;;;;;;4963095;27;20046;-83
2021/03/26 07:06:41;;;;;;;56.88;24.88;;;15.80;99.90;;;;;;4964363;27;20035;-85
2021/03/26 07:09:19;;;;;;;52.45;22.42;;;17.00;99.90;;;;;;4965935;27;20047;-85
2021/03/26 07:11:59;;;;;;;46.53;23.30;;;17.10;99.90;;;;;;4964719;27;20039;-83
2021/03/26 07:14:41;;;;;;;52.20;23.60;;;17.30;99.90;;;;;;4963405;27;20126;-82
2021/03/26 07:17:37;;;;;;;55.22;25.63;;;17.80;99.90;;;;;;4963302;27;20058;-84
2021/03/26 07:20:28;;;;;;;52.30;24.13;;;18.00;99.90;;;;;;4946325;27;20050;-81
2021/03/26 07:23:29;;;;;;;47.33;25.02;;;17.90;99.90;;;;;;4954548;27;20050;-82
2021/03/26 07:26:13;;;;;;;54.38;26.00;;;17.30;99.90;;;;;;4962366;27;20053;-83
2021/03/26 07:28:41;;;;;;;56.35;25.58;;;17.00;99.90;;;;;;4959199;27;20047;-84
2021/03/26 07:31:25;;;;;;;54.00;25.65;;;16.80;99.90;;;;;;4964017;27;20095;-83
2021/03/26 07:33:53;;;;;;;50.55;24.77;;;16.90;99.90;;;;;;4962273;27;20122;-83
2021/03/26 07:36:46;;;;;;;49.35;24.10;;;17.80;99.90;;;;;;4966110;27;20051;-83
2021/03/26 07:39:25;;;;;;;46.03;23.08;;;18.10;99.90;;;;;;4964693;27;20447;-85
2021/03/26 07:42:15;;;;;;;42.20;21.65;;;18.00;99.90;;;;;;4964461;27;20039;-83
2021/03/26 07:44:57;;;;;;;47.33;23.60;;;18.20;99.90;;;;;;4961787;27;20050;-82
2021/03/26 07:47:51;;;;;;;42.90;22.00;;;18.50;99.90;;;;;;4962377;27;20062;-80
2021/03/26 07:50:45;;;;;;;44.90;21.30;;;18.50;99.90;;;;;;4962555;27;20367;-84
2021/03/26 07:53:34;;;;;;;49.08;22.50;;;18.40;99.90;;;;;;4961023;27;20500;-84
2021/03/26 07:56:05;;;;;;;45.60;21.02;;;18.20;99.90;;;;;;4963021;27;20096;-80
2021/03/26 07:59:08;;;;;;;45.97;21.75;;;18.20;99.90;;;;;;4963990;27;20051;-83
2021/03/26 08:01:42;;;;;;;44.08;21.95;;;18.10;99.90;;;;;;4880963;28;20064;-79
2021/03/26 08:04:17;;;;;;;46.88;21.52;;;18.40;99.90;;;;;;4873815;28;20045;-82
2021/03/26 08:07:12;;;;;;;38.22;18.80;;;18.70;99.90;;;;;;4931307;27;20039;-83
2021/03/26 08:10:02;;;;;;;38.88;17.30;;;18.90;99.90;;;;;;4962464;27;20393;-83
2021/03/26 08:12:40;;;;;;;31.92;16.50;;;19.20;99.90;;;;;;4921667;27;20535;-83
2021/03/26 08:15:22;;;;;;;28.17;13.65;;;19.60;97.30;;;;;;4962557;27;20043;-82
2021/03/26 08:17:57;;;;;;;31.23;15.10;;;19.30;97.10;;;;;;4962689;27;20463;-82
2021/03/26 08:20:31;;;;;;;31.27;15.45;;;19.40;96.70;;;;;;4953866;27;20039;-81
2021/03/26 08:23:29;;;;;;;33.08;14.27;;;20.00;93.90;;;;;;4964583;27;20043;-84
2021/03/26 08:26:03;;;;;;;29.77;14.45;;;19.90;94.80;;;;;;4956460;27;20038;-84
2021/03/26 08:28:51;;;;;;;34.08;14.30;;;20.30;93.40;;;;;;4963424;27;20040;-83
2021/03/26 08:31:42;;;;;;;27.00;13.75;;;20.00;92.30;;;;;;4965522;27;20047;-81
2021/03/26 08:34:23;;;;;;;27.65;14.13;;;19.90;92.50;;;;;;4964108;27;20708;-82
2021/03/26 08:36:55;;;;;;;29.95;14.43;;;19.90;92.80;;;;;;4964569;27;20039;-81
2021/03/26 08:39:32;;;;;;;32.00;13.90;;;19.50;91.10;;;;;;4966437;27;20043;-84
2021/03/26 08:42:22;;;;;;;29.70;13.60;;;18.70;91.40;;;;;;4962303;27;20047;-81
2021/03/26 08:44:51;;;;;;;26.70;13.13;;;18.40;92.00;;;;;;4967894;27;20232;-83
2021/03/26 08:47:36;;;;;;;26.00;13.48;;;18.60;92.20;;;;;;4950901;27;20088;-81
2021/03/26 08:50:24;;;;;;;32.28;13.93;;;18.50;92.50;;;;;;4958546;27;20405;-82
2021/03/26 08:53:01;;;;;;;27.50;13.50;;;18.40;92.50;;;;;;4967581;27;20493;-81
2021/03/26 08:55:46;;;;;;;25.95;12.85;;;18.80;92.00;;;;;;4955766;27;20047;-84
2021/03/26 08:58:26;;;;;;;33.55;14.90;;;18.90;91.50;;;;;;4965490;27;20042;-84
2021/03/26 09:01:08;;;;;;;24.92;12.43;;;18.90;90.40;;;;;;4965234;27;20047;-86
2021/03/26 09:04:02;;;;;;;24.75;11.30;;;19.10;90.40;;;;;;4945326;27;20050;-82
2021/03/26 09:07:10;;;;;;;26.83;11.93;;;18.40;90.40;;;;;;4921183;27;20405;-86
2021/03/26 09:10:06;;;;;;;33.28;14.00;;;18.20;94.00;;;;;;4895455;27;20055;-81
2021/03/26 09:13:19;;;;;;;23.30;12.02;;;18.20;90.60;;;;;;4890882;27;20048;-81
2021/03/26 09:15:59;;;;;;;25.02;10.90;;;17.70;91.00;;;;;;4898870;27;20062;-82
2021/03/26 09:19:11;;;;;;;21.00;10.80;;;17.20;90.70;;;;;;4881560;27;20054;-82
2021/03/26 09:21:54;;;;;;;29.00;13.10;;;16.50;92.80;;;;;;4887458;28;20051;-83
2021/03/26 09:25:15;;;;;;;29.23;13.45;;;16.60;94.40;;;;;;4901847;27;20053;-81
2021/03/26 09:28:00;;;;;;;25.65;12.07;;;16.90;93.70;;;;;;4899203;28;20043;-83
2021/03/26 09:30:27;;;;;;;21.25;9.95;;;17.00;91.00;;;;;;4901529;27;20059;-82
2021/03/26 09:32:59;;;;;;;27.02;11.13;;;16.80;92.40;;;;;;4912850;27;20093;-82
2021/03/26 09:35:31;;;;;;;23.60;11.57;;;16.40;92.50;;;;;;4909362;27;20144;-85
2021/03/26 09:38:04;;;;;;;24.65;10.35;;;16.10;92.50;;;;;;4899157;27;20044;-80
2021/03/26 09:40:43;;;;;;;25.02;9.85;;;15.90;92.60;;;;;;4899846;27;20126;-83
2021/03/26 09:43:15;;;;;;;23.02;10.70;;;15.80;95.30;;;;;;4894340;27;20052;-85
2021/03/26 09:45:43;;;;;;;24.98;11.65;;;15.80;95.60;;;;;;4872840;28;20072;-82
2021/03/26 09:48:42;;;;;;;29.23;11.48;;;15.90;95.00;;;;;;4877571;27;20050;-81
2021/03/26 09:51:22;;;;;;;28.02;12.38;;;16.30;96.10;;;;;;4903906;28;20039;-85
2021/03/26 09:53:50;;;;;;;26.63;11.82;;;16.00;94.10;;;;;;4883902;27;20048;-85
2021/03/26 09:56:35;;;;;;;23.38;10.70;;;15.80;95.10;;;;;;4902016;27;20130;-82
2021/03/26 09:59:08;;;;;;;24.13;11.25;;;15.60;94.80;;;;;;4885529;27;20056;-85
2021/03/26 10:01:40;;;;;;;26.50;11.40;;;15.40;94.50;;;;;;4896718;28;20075;-82
2021/03/26 10:04:08;;;;;;;25.65;11.20;;;15.40;95.20;;;;;;4907488;27;20136;-83
2021/03/26 10:06:51;;;;;;;22.63;9.23;;;15.40;94.80;;;;;;4898509;27;20039;-83
2021/03/26 10:09:27;;;;;;;23.65;11.05;;;15.20;95.30;;;;;;4908537;27;20474;-83
2021/03/26 10:12:04;;;;;;;28.45;10.88;;;15.10;95.20;;;;;;4922329;27;20097;-84
2021/03/26 10:15:04;;;;;;;23.38;11.93;;;14.90;95.30;;;;;;4873818;28;68932;-83
2021/03/26 10:17:51;;;;;;;24.10;11.48;;;15.10;95.50;;;;;;4861964;28;69743;-85
2021/03/26 10:20:23;;;;;;;24.08;11.32;;;15.30;96.10;;;;;;4861517;28;20053;-84
2021/03/26 10:23:34;;;;;;;24.77;11.25;;;15.40;96.50;;;;;;4858708;28;20737;-87
2021/03/26 10:26:05;;;;;;;27.98;11.90;;;15.70;96.00;;;;;;4847570;28;20079;-84
2021/03/26 10:28:53;;;;;;;30.67;12.73;;;15.60;95.90;;;;;;4875172;28;20698;-85
2021/03/26 10:31:19;;;;;;;29.45;12.77;;;15.70;95.70;;;;;;4894908;28;20395;-83
2021/03/26 10:33:46;;;;;;;27.85;12.45;;;15.60;95.40;;;;;;4879106;28;20205;-85
2021/03/26 10:36:20;;;;;;;26.60;13.40;;;15.70;96.20;;;;;;4857655;28;20397;-83
2021/03/26 10:38:49;;;;;;;25.42;12.55;;;15.40;95.40;;;;;;4888615;28;20111;-83
2021/03/26 10:41:30;;;;;;;27.35;11.93;;;15.40;97.20;;;;;;4891180;28;20060;-85
2021/03/26 10:44:09;;;;;;;26.60;12.75;;;15.20;96.30;;;;;;4892255;28;20103;-83
2021/03/26 10:46:38;;;;;;;29.45;13.38;;;15.30;96.20;;;;;;4897172;28;20048;-83
2021/03/26 10:49:06;;;;;;;25.77;12.15;;;15.40;95.60;;;;;;4889911;28;20045;-84
2021/03/26 10:51:40;;;;;;;29.20;13.52;;;15.60;97.10;;;;;;4886057;28;20537;-84
2021/03/26 10:54:16;;;;;;;25.52;11.82;;;15.70;95.50;;;;;;4899994;28;20495;-83
2021/03/26 10:57:16;;;;;;;28.73;12.32;;;15.60;95.40;;;;;;4894863;28;20041;-84
2021/03/26 10:59:55;;;;;;;24.92;11.48;;;15.30;95.40;;;;;;4883300;28;20049;-85
2021/03/26 11:02:42;;;;;;;28.50;12.57;;;15.10;96.20;;;;;;4896961;28;20036;-84
2021/03/26 11:05:19;;;;;;;24.58;11.60;;;15.40;96.90;;;;;;4893786;28;20045;-83
2021/03/26 11:08:07;;;;;;;26.90;11.80;;;15.70;96.70;;;;;;4883342;28;20527;-84
2021/03/26 11:10:35;;;;;;;26.05;12.57;;;15.90;96.50;;;;;;4889936;28;20051;-84
2021/03/26 11:13:12;;;;;;;24.90;12.27;;;15.30;96.60;;;;;;4886036;28;20049;-83
2021/03/26 11:15:47;;;;;;;24.23;12.18;;;16.10;96.30;;;;;;4865754;28;20056;-83
2021/03/26 11:18:21;;;;;;;26.38;12.88;;;16.20;95.80;;;;;;4892190;28;20047;-84
2021/03/26 11:21:00;;;;;;;28.33;13.88;;;16.00;96.10;;;;;;4901169;28;20044;-84
2021/03/26 11:23:27;;;;;;;24.63;12.57;;;16.10;96.90;;;;;;4881535;28;20091;-82
2021/03/26 11:26:15;;;;;;;25.75;12.60;;;15.90;96.10;;;;;;4880806;28;20052;-83
2021/03/26 11:28:47;;;;;;;25.35;13.00;;;15.90;96.60;;;;;;4881858;28;20073;-85
2021/03/26 11:31:18;;;;;;;26.92;12.05;;;15.90;96.70;;;;;;4890961;28;20045;-85
2021/03/26 11:34:07;;;;;;;26.90;12.27;;;16.00;95.40;;;;;;4875917;28;20037;-84
2021/03/26 11:37:07;;;;;;;21.67;11.85;;;16.10;97.30;;;;;;4863784;28;20041;-85
2021/03/26 11:39:39;;;;;;;24.67;12.60;;;15.90;96.90;;;;;;4877803;28;20484;-83
2021/03/26 11:42:36;;;;;;;27.00;12.85;;;15.70;97.40;;;;;;4892765;28;20423;-82
2021/03/26 11:45:03;;;;;;;26.33;12.60;;;15.80;97.20;;;;;;4892903;28;20098;-81
2021/03/26 11:47:37;;;;;;;28.00;13.02;;;15.60;96.20;;;;;;4890609;28;20045;-81
2021/03/26 11:50:17;;;;;;;23.33;11.82;;;15.80;97.60;;;;;;4897792;28;20056;-83
2021/03/26 11:52:45;;;;;;;22.88;11.85;;;15.90;97.20;;;;;;4894970;28;20079;-81
2021/03/26 11:55:19;;;;;;;23.33;11.80;;;15.60;97.50;;;;;;4878171;28;20049;-83
2021/03/26 11:57:52;;;;;;;26.67;12.48;;;15.40;97.60;;;;;;4892425;28;20048;-82
2021/03/26 12:00:19;;;;;;;33.38;12.98;;;15.50;97.60;;;;;;4882957;28;20053;-82
2021/03/26 12:02:55;;;;;;;28.70;13.50;;;15.50;97.40;;;;;;4905885;28;20095;-81
2021/03/26 12:05:56;;;;;;;24.08;12.80;;;15.80;97.90;;;;;;4907529;28;20435;-82
2021/03/26 12:08:28;;;;;;;29.00;12.82;;;15.70;97.20;;;;;;4908446;28;20048;-84
2021/03/26 12:11:07;;;;;;;27.20;12.55;;;15.80;97.30;;;;;;4904547;28;20041;-83
2021/03/26 12:13:37;;;;;;;25.02;12.65;;;15.90;98.50;;;;;;4910562;28;20406;-83
2021/03/26 12:16:13;;;;;;;25.38;11.77;;;15.60;97.30;;;;;;4907939;28;20041;-83
2021/03/26 12:18:47;;;;;;;24.10;12.57;;;15.50;97.40;;;;;;4910243;28;20154;-83
2021/03/26 12:21:22;;;;;;;24.95;12.48;;;15.40;96.20;;;;;;4906769;28;20041;-82
2021/03/26 12:23:56;;;;;;;24.95;12.23;;;15.50;99.10;;;;;;4891858;28;20044;-82
2021/03/26 12:26:29;;;;;;;23.65;11.43;;;15.80;98.20;;;;;;4905305;28;20048;-82
2021/03/26 12:29:26;;;;;;;23.42;12.10;;;15.70;96.60;;;;;;4907476;28;20388;-82
2021/03/26 12:32:06;;;;;;;22.00;11.50;;;15.70;98.80;;;;;;4898523;28;20387;-84
2021/03/26 12:34:54;;;;;;;24.42;12.35;;;15.70;97.80;;;;;;4890622;28;20037;-84
2021/03/26 12:37:28;;;;;;;23.52;11.60;;;15.60;98.20;;;;;;4880031;28;20132;-83
2021/03/26 12:40:31;;;;;;;25.70;11.45;;;15.40;97.60;;;;;;4894107;28;20110;-84
2021/03/26 12:43:01;;;;;;;25.30;11.82;;;15.70;98.20;;;;;;4840656;28;20066;-81
2021/03/26 12:45:38;;;;;;;28.38;11.52;;;16.10;98.40;;;;;;4902203;28;20040;-86
2021/03/26 12:48:05;;;;;;;25.15;12.05;;;16.10;97.30;;;;;;4905120;28;20047;-82
2021/03/26 12:50:35;;;;;;;24.08;11.18;;;15.90;97.20;;;;;;4889727;28;20553;-82
2021/03/26 12:53:09;;;;;;;24.10;11.63;;;15.50;97.60;;;;;;4908030;28;20114;-83
2021/03/26 12:56:10;;;;;;;25.20;11.85;;;15.50;98.50;;;;;;4901723;28;20045;-84
2021/03/26 12:59:06;;;;;;;20.77;10.50;;;15.70;97.00;;;;;;4888701;28;20041;-82
2021/03/26 13:01:38;;;;;;;23.45;12.02;;;15.70;97.50;;;;;;4905336;28;20479;-82
2021/03/26 13:04:20;;;;;;;27.27;11.48;;;15.50;98.30;;;;;;4907081;28;20048;-84
2021/03/26 13:06:46;;;;;;;23.90;12.48;;;15.20;98.80;;;;;;4901033;28;20041;-85
2021/03/26 13:09:34;;;;;;;23.90;12.23;;;15.20;96.90;;;;;;4909390;28;20052;-82
2021/03/26 13:12:05;;;;;;;26.98;11.70;;;15.20;98.50;;;;;;4908511;28;20056;-78
2021/03/26 13:14:46;;;;;;;26.98;11.68;;;15.20;98.30;;;;;;4889445;28;20040;-83